sensor_id;sensor_type;location;lat;lon;timestamp;pressure;altitude;pressure_sealevel;temperature;humidity
64841;BME280;51307;52.162;7.560;2023-04-02T00:08:55;100616.22;;;6.59;61.66
64841;BME280;51307;52.162;7.560;2023-04-02T00:11:31;100624.75;;;7.02;60.76
64841;BME280;51307;52.162;7.560;2023-04-02T00:14:01;100627.41;;;6.92;60.49
64841;BME280;51307;52.162;7.560;2023-04-02T00:16:28;100628.38;;;6.91;60.70
64841;BME280;51307;52.162;7.560;2023-04-02T00:19:00;100633.00;;;6.89;60.61
64841;BME280;51307;52.162;7.560;2023-04-02T00:21:38;100643.91;;;6.76;61.13
64841;BME280;51307;52.162;7.560;2023-04-02T00:24:13;100647.00;;;6.91;60.55
64841;BME280;51307;52.162;7.560;2023-04-02T00:26:45;100660.72;;;6.77;60.72
64841;BME280;51307;52.162;7.560;2023-04-02T00:29:14;100649.81;;;6.80;60.25
64841;BME280;51307;52.162;7.560;2023-04-02T00:31:43;100649.91;;;6.68;60.62
64841;BME280;51307;52.162;7.560;2023-04-02T00:34:23;100665.59;;;6.62;60.37
64841;BME280;51307;52.162;7.560;2023-04-02T00:36:51;100663.22;;;6.58;59.90
64841;BME280;51307;52.162;7.560;2023-04-02T00:39:21;100664.03;;;6.49;59.86
64841;BME280;51307;52.162;7.560;2023-04-02T00:41:49;100663.50;;;6.46;59.82
64841;BME280;51307;52.162;7.560;2023-04-02T00:44:19;100662.22;;;6.50;60.27
64841;BME280;51307;52.162;7.560;2023-04-02T00:46:47;100667.56;;;6.50;60.10
64841;BME280;51307;52.162;7.560;2023-04-02T00:49:43;100662.78;;;6.53;59.77
64841;BME280;51307;52.162;7.560;2023-04-02T00:52:15;100668.38;;;6.40;59.70
64841;BME280;51307;52.162;7.560;2023-04-02T00:54:49;100674.94;;;6.36;60.04
64841;BME280;51307;52.162;7.560;2023-04-02T00:57:20;100676.34;;;6.40;59.83
64841;BME280;51307;52.162;7.560;2023-04-02T01:02:30;100678.53;;;6.26;59.95
64841;BME280;51307;52.162;7.560;2023-04-02T01:05:03;100692.50;;;6.28;59.81
64841;BME280;51307;52.162;7.560;2023-04-02T01:07:59;100691.94;;;6.24;60.01
64841;BME280;51307;52.162;7.560;2023-04-02T01:18:32;100722.22;;;6.43;59.76
64841;BME280;51307;52.162;7.560;2023-04-02T01:21:10;100734.09;;;6.48;59.28
64841;BME280;51307;52.162;7.560;2023-04-02T01:23:47;100744.09;;;6.66;58.80
64841;BME280;51307;52.162;7.560;2023-04-02T01:29:22;100756.41;;;6.57;59.67
64841;BME280;51307;52.162;7.560;2023-04-02T01:31:52;100758.63;;;6.52;59.45
64841;BME280;51307;52.162;7.560;2023-04-02T01:34:24;100770.13;;;6.62;59.31
64841;BME280;51307;52.162;7.560;2023-04-02T01:45:00;100792.06;;;6.23;58.64
64841;BME280;51307;52.162;7.560;2023-04-02T01:47:27;100795.00;;;6.20;58.83
64841;BME280;51307;52.162;7.560;2023-04-02T01:52:47;100792.22;;;6.01;58.50
64841;BME280;51307;52.162;7.560;2023-04-02T01:55:20;100801.47;;;6.06;58.72
64841;BME280;51307;52.162;7.560;2023-04-02T01:57:52;100803.88;;;5.88;58.98
64841;BME280;51307;52.162;7.560;2023-04-02T02:00:19;100813.22;;;5.83;58.77
64841;BME280;51307;52.162;7.560;2023-04-02T02:02:49;100819.16;;;5.75;58.46
64841;BME280;51307;52.162;7.560;2023-04-02T02:05:19;100821.81;;;5.75;58.28
64841;BME280;51307;52.162;7.560;2023-04-02T02:07:46;100827.66;;;5.69;58.50
64841;BME280;51307;52.162;7.560;2023-04-02T02:10:17;100831.22;;;5.79;58.24
64841;BME280;51307;52.162;7.560;2023-04-02T02:12:46;100835.53;;;5.59;58.52
64841;BME280;51307;52.162;7.560;2023-04-02T02:15:19;100840.16;;;5.46;57.83
64841;BME280;51307;52.162;7.560;2023-04-02T02:17:45;100835.78;;;5.56;57.97
64841;BME280;51307;52.162;7.560;2023-04-02T02:20:12;100847.06;;;5.69;58.16
64841;BME280;51307;52.162;7.560;2023-04-02T02:22:43;100849.00;;;5.67;57.82
64841;BME280;51307;52.162;7.560;2023-04-02T02:25:14;100854.56;;;5.64;57.74
64841;BME280;51307;52.162;7.560;2023-04-02T02:27:48;100854.09;;;5.59;57.99
64841;BME280;51307;52.162;7.560;2023-04-02T02:30:32;100864.00;;;5.57;57.73
64841;BME280;51307;52.162;7.560;2023-04-02T02:35:52;100867.72;;;5.66;57.77
64841;BME280;51307;52.162;7.560;2023-04-02T02:38:41;100876.09;;;5.50;57.58
64841;BME280;51307;52.162;7.560;2023-04-02T02:43:51;100883.13;;;5.39;57.47
64841;BME280;51307;52.162;7.560;2023-04-02T02:46:22;100893.13;;;5.36;57.53
64841;BME280;51307;52.162;7.560;2023-04-02T02:48:51;100902.88;;;5.47;57.42
64841;BME280;51307;52.162;7.560;2023-04-02T02:51:38;100899.78;;;5.30;56.96
64841;BME280;51307;52.162;7.560;2023-04-02T02:54:05;100905.78;;;5.44;56.87
64841;BME280;51307;52.162;7.560;2023-04-02T02:56:37;100913.88;;;5.42;57.31
64841;BME280;51307;52.162;7.560;2023-04-02T02:59:09;100915.56;;;5.32;56.58
64841;BME280;51307;52.162;7.560;2023-04-02T03:01:36;100925.22;;;5.21;56.79
64841;BME280;51307;52.162;7.560;2023-04-02T03:04:02;100933.09;;;5.12;56.00
64841;BME280;51307;52.162;7.560;2023-04-02T03:06:28;100941.41;;;5.07;56.38
64841;BME280;51307;52.162;7.560;2023-04-02T03:09:05;100945.97;;;5.16;56.34
64841;BME280;51307;52.162;7.560;2023-04-02T03:11:49;100945.38;;;5.01;56.79
64841;BME280;51307;52.162;7.560;2023-04-02T03:17:02;100963.59;;;5.06;56.62
64841;BME280;51307;52.162;7.560;2023-04-02T03:19:40;100978.06;;;5.02;56.56
64841;BME280;51307;52.162;7.560;2023-04-02T03:22:24;100966.50;;;5.03;56.16
64841;BME280;51307;52.162;7.560;2023-04-02T03:27:33;100983.84;;;5.07;55.86
64841;BME280;51307;52.162;7.560;2023-04-02T03:32:53;100995.91;;;5.11;55.93
64841;BME280;51307;52.162;7.560;2023-04-02T03:35:37;100995.28;;;5.08;55.54
64841;BME280;51307;52.162;7.560;2023-04-02T03:38:06;101003.97;;;4.98;56.02
64841;BME280;51307;52.162;7.560;2023-04-02T03:40:41;101006.84;;;4.95;55.78
64841;BME280;51307;52.162;7.560;2023-04-02T03:43:27;101015.28;;;4.89;55.88
64841;BME280;51307;52.162;7.560;2023-04-02T03:46:15;101023.97;;;4.91;55.65
64841;BME280;51307;52.162;7.560;2023-04-02T03:48:52;101027.00;;;4.98;55.90
64841;BME280;51307;52.162;7.560;2023-04-02T03:51:23;101033.38;;;4.95;55.93
64841;BME280;51307;52.162;7.560;2023-04-02T03:53:50;101045.69;;;4.96;55.87
64841;BME280;51307;52.162;7.560;2023-04-02T03:56:29;101044.38;;;4.66;56.23
64841;BME280;51307;52.162;7.560;2023-04-02T03:59:18;101053.00;;;4.93;55.65
64841;BME280;51307;52.162;7.560;2023-04-02T04:04:41;101063.25;;;4.86;55.67
64841;BME280;51307;52.162;7.560;2023-04-02T04:07:18;101069.75;;;4.82;55.97
64841;BME280;51307;52.162;7.560;2023-04-02T04:09:49;101077.56;;;4.83;56.05
64841;BME280;51307;52.162;7.560;2023-04-02T04:12:35;101080.72;;;4.88;55.44
64841;BME280;51307;52.162;7.560;2023-04-02T04:15:11;101081.06;;;4.84;55.84
64841;BME280;51307;52.162;7.560;2023-04-02T04:18:03;101086.28;;;4.97;55.74
64841;BME280;51307;52.162;7.560;2023-04-02T04:20:57;101088.56;;;4.90;55.59
64841;BME280;51307;52.162;7.560;2023-04-02T04:23:32;101098.50;;;4.75;55.17
64841;BME280;51307;52.162;7.560;2023-04-02T04:31:49;101115.50;;;4.72;54.55
64841;BME280;51307;52.162;7.560;2023-04-02T04:34:25;101119.06;;;4.60;54.92
64841;BME280;51307;52.162;7.560;2023-04-02T04:36:59;101127.81;;;4.49;54.75
64841;BME280;51307;52.162;7.560;2023-04-02T04:39:46;101133.97;;;4.37;54.88
64841;BME280;51307;52.162;7.560;2023-04-02T04:42:26;101146.34;;;4.36;54.99
64841;BME280;51307;52.162;7.560;2023-04-02T04:45:08;101147.94;;;4.39;55.66
64841;BME280;51307;52.162;7.560;2023-04-02T04:47:45;101158.31;;;4.55;55.20
64841;BME280;51307;52.162;7.560;2023-04-02T04:50:46;101164.78;;;4.51;55.29
64841;BME280;51307;52.162;7.560;2023-04-02T04:53:19;101158.41;;;4.41;54.86
64841;BME280;51307;52.162;7.560;2023-04-02T04:55:50;101171.78;;;4.39;54.34
64841;BME280;51307;52.162;7.560;2023-04-02T04:58:42;101172.97;;;4.35;54.43
64841;BME280;51307;52.162;7.560;2023-04-02T05:04:09;101187.91;;;4.36;54.07
64841;BME280;51307;52.162;7.560;2023-04-02T05:07:06;101186.75;;;4.27;53.89
64841;BME280;51307;52.162;7.560;2023-04-02T05:10:05;101196.06;;;4.33;54.18
64841;BME280;51307;52.162;7.560;2023-04-02T05:15:34;101221.53;;;4.22;54.15
64841;BME280;51307;52.162;7.560;2023-04-02T05:18:34;101217.06;;;4.23;54.21
64841;BME280;51307;52.162;7.560;2023-04-02T05:26:50;101249.97;;;4.45;54.38
64841;BME280;51307;52.162;7.560;2023-04-02T05:29:28;101254.88;;;4.38;53.69
64841;BME280;51307;52.162;7.560;2023-04-02T05:34:32;101273.63;;;4.35;53.82
64841;BME280;51307;52.162;7.560;2023-04-02T05:36:58;101276.53;;;4.06;53.66
64841;BME280;51307;52.162;7.560;2023-04-02T05:39:26;101281.50;;;4.11;54.40
64841;BME280;51307;52.162;7.560;2023-04-02T05:42:02;101289.41;;;4.36;53.63
64841;BME280;51307;52.162;7.560;2023-04-02T05:44:31;101291.75;;;4.28;53.63
64841;BME280;51307;52.162;7.560;2023-04-02T05:47:21;101286.16;;;4.07;53.94
64841;BME280;51307;52.162;7.560;2023-04-02T05:52:31;101305.75;;;4.17;54.19
64841;BME280;51307;52.162;7.560;2023-04-02T05:58:01;101306.41;;;4.21;53.46
64841;BME280;51307;52.162;7.560;2023-04-02T06:03:15;101316.44;;;4.03;54.11
64841;BME280;51307;52.162;7.560;2023-04-02T06:05:45;101322.91;;;4.25;53.22
64841;BME280;51307;52.162;7.560;2023-04-02T06:08:21;101336.34;;;4.09;53.86
64841;BME280;51307;52.162;7.560;2023-04-02T06:13:26;101337.09;;;4.11;53.88
64841;BME280;51307;52.162;7.560;2023-04-02T06:15:52;101346.53;;;4.15;53.73
64841;BME280;51307;52.162;7.560;2023-04-02T06:18:21;101348.13;;;4.17;53.93
64841;BME280;51307;52.162;7.560;2023-04-02T06:20:48;101350.16;;;4.27;53.59
64841;BME280;51307;52.162;7.560;2023-04-02T06:23:52;101365.00;;;4.29;53.83
64841;BME280;51307;52.162;7.560;2023-04-02T06:28:49;101369.84;;;4.35;53.54
64841;BME280;51307;52.162;7.560;2023-04-02T06:34:02;101383.53;;;4.29;53.42
64841;BME280;51307;52.162;7.560;2023-04-02T06:36:29;101395.06;;;4.28;53.57
64841;BME280;51307;52.162;7.560;2023-04-02T06:39:02;101405.03;;;4.25;53.43
64841;BME280;51307;52.162;7.560;2023-04-02T06:41:29;101409.28;;;4.27;53.29
64841;BME280;51307;52.162;7.560;2023-04-02T06:44:01;101416.28;;;4.28;53.36
64841;BME280;51307;52.162;7.560;2023-04-02T06:46:35;101408.97;;;4.32;53.31
64841;BME280;51307;52.162;7.560;2023-04-02T06:51:53;101422.50;;;4.27;53.83
64841;BME280;51307;52.162;7.560;2023-04-02T06:54:19;101429.19;;;4.33;53.31
64841;BME280;51307;52.162;7.560;2023-04-02T06:56:49;101430.16;;;4.32;53.49
64841;BME280;51307;52.162;7.560;2023-04-02T06:59:16;101437.91;;;4.35;53.52
64841;BME280;51307;52.162;7.560;2023-04-02T07:01:50;101455.25;;;4.26;53.27
64841;BME280;51307;52.162;7.560;2023-04-02T07:04:19;101456.78;;;4.43;53.47
64841;BME280;51307;52.162;7.560;2023-04-02T07:06:45;101458.38;;;4.46;53.43
64841;BME280;51307;52.162;7.560;2023-04-02T07:09:11;101472.03;;;4.39;52.83
64841;BME280;51307;52.162;7.560;2023-04-02T07:11:37;101478.19;;;4.40;53.74
64841;BME280;51307;52.162;7.560;2023-04-02T07:14:03;101480.41;;;4.46;53.27
64841;BME280;51307;52.162;7.560;2023-04-02T07:16:31;101486.53;;;4.34;53.03
64841;BME280;51307;52.162;7.560;2023-04-02T07:18:58;101491.97;;;4.45;52.85
64841;BME280;51307;52.162;7.560;2023-04-02T07:21:26;101494.53;;;4.47;52.93
64841;BME280;51307;52.162;7.560;2023-04-02T07:23:52;101494.34;;;4.50;52.66
64841;BME280;51307;52.162;7.560;2023-04-02T07:26:21;101501.72;;;4.45;53.00
64841;BME280;51307;52.162;7.560;2023-04-02T07:28:48;101507.59;;;4.50;52.75
64841;BME280;51307;52.162;7.560;2023-04-02T07:31:19;101504.56;;;4.42;52.28
64841;BME280;51307;52.162;7.560;2023-04-02T07:33:45;101515.94;;;4.44;52.95
64841;BME280;51307;52.162;7.560;2023-04-02T07:36:16;101511.97;;;4.36;52.38
64841;BME280;51307;52.162;7.560;2023-04-02T07:38:42;101517.50;;;4.33;52.66
64841;BME280;51307;52.162;7.560;2023-04-02T07:41:08;101530.22;;;4.68;52.68
64841;BME280;51307;52.162;7.560;2023-04-02T07:43:33;101527.53;;;4.55;52.42
64841;BME280;51307;52.162;7.560;2023-04-02T07:46:00;101531.03;;;4.56;52.21
64841;BME280;51307;52.162;7.560;2023-04-02T07:48:26;101546.84;;;4.70;52.98
64841;BME280;51307;52.162;7.560;2023-04-02T07:50:52;101550.75;;;4.52;53.39
64841;BME280;51307;52.162;7.560;2023-04-02T07:55:54;101554.28;;;4.65;52.44
64841;BME280;51307;52.162;7.560;2023-04-02T07:58:21;101558.16;;;4.60;52.89
64841;BME280;51307;52.162;7.560;2023-04-02T08:00:46;101567.94;;;4.59;52.63
64841;BME280;51307;52.162;7.560;2023-04-02T08:03:12;101568.53;;;4.50;53.27
64841;BME280;51307;52.162;7.560;2023-04-02T08:05:38;101553.88;;;4.44;52.45
64841;BME280;51307;52.162;7.560;2023-04-02T08:08:04;101564.88;;;4.38;52.21
64841;BME280;51307;52.162;7.560;2023-04-02T08:10:30;101578.00;;;4.39;51.66
64841;BME280;51307;52.162;7.560;2023-04-02T08:12:56;101583.13;;;4.43;52.04
64841;BME280;51307;52.162;7.560;2023-04-02T08:15:21;101587.47;;;4.44;52.03
64841;BME280;51307;52.162;7.560;2023-04-02T08:17:47;101597.69;;;4.50;51.40
64841;BME280;51307;52.162;7.560;2023-04-02T08:20:20;101601.84;;;4.54;51.84
64841;BME280;51307;52.162;7.560;2023-04-02T08:22:47;101601.38;;;4.47;52.14
64841;BME280;51307;52.162;7.560;2023-04-02T08:25:14;101613.94;;;4.58;51.87
64841;BME280;51307;52.162;7.560;2023-04-02T08:27:40;101621.16;;;4.56;51.74
64841;BME280;51307;52.162;7.560;2023-04-02T08:30:07;101621.72;;;4.47;50.69
64841;BME280;51307;52.162;7.560;2023-04-02T08:32:34;101622.13;;;4.41;50.57
64841;BME280;51307;52.162;7.560;2023-04-02T08:34:59;101629.50;;;4.50;50.75
64841;BME280;51307;52.162;7.560;2023-04-02T08:37:25;101635.09;;;4.45;50.28
64841;BME280;51307;52.162;7.560;2023-04-02T08:39:50;101648.75;;;4.66;51.09
64841;BME280;51307;52.162;7.560;2023-04-02T08:43:17;101629.84;;;4.58;51.11
64841;BME280;51307;52.162;7.560;2023-04-02T08:45:18;101644.09;;;4.70;50.87
64841;BME280;51307;52.162;7.560;2023-04-02T08:47:48;101647.97;;;4.79;51.78
64841;BME280;51307;52.162;7.560;2023-04-02T08:50:37;101645.94;;;4.82;50.30
64841;BME280;51307;52.162;7.560;2023-04-02T09:01:41;101669.16;;;4.79;50.10
64841;BME280;51307;52.162;7.560;2023-04-02T09:04:20;101682.22;;;4.82;50.03
64841;BME280;51307;52.162;7.560;2023-04-02T09:06:49;101682.66;;;4.88;50.37
64841;BME280;51307;52.162;7.560;2023-04-02T09:09:18;101685.31;;;4.88;50.39
64841;BME280;51307;52.162;7.560;2023-04-02T09:12:01;101682.56;;;4.90;50.36
64841;BME280;51307;52.162;7.560;2023-04-02T09:17:18;101700.91;;;4.93;49.77
64841;BME280;51307;52.162;7.560;2023-04-02T09:20:11;101695.72;;;4.92;49.65
64841;BME280;51307;52.162;7.560;2023-04-02T09:22:38;101706.75;;;4.98;49.69
64841;BME280;51307;52.162;7.560;2023-04-02T09:25:13;101701.94;;;5.18;50.94
64841;BME280;51307;52.162;7.560;2023-04-02T09:27:39;101708.63;;;5.23;49.39
64841;BME280;51307;52.162;7.560;2023-04-02T09:35:19;101728.84;;;5.52;49.81
64841;BME280;51307;52.162;7.560;2023-04-02T09:37:45;101727.91;;;5.53;49.62
64841;BME280;51307;52.162;7.560;2023-04-02T09:40:32;101725.88;;;5.44;50.46
64841;BME280;51307;52.162;7.560;2023-04-02T09:43:14;101742.63;;;5.44;50.05
64841;BME280;51307;52.162;7.560;2023-04-02T09:45:42;101739.69;;;5.49;48.76
64841;BME280;51307;52.162;7.560;2023-04-02T09:48:35;101742.44;;;5.47;47.43
64841;BME280;51307;52.162;7.560;2023-04-02T09:51:19;101746.78;;;5.35;47.53
64841;BME280;51307;52.162;7.560;2023-04-02T09:56:26;101740.81;;;5.32;48.82
64841;BME280;51307;52.162;7.560;2023-04-02T09:59:15;101767.78;;;5.38;47.71
64841;BME280;51307;52.162;7.560;2023-04-02T10:04:45;101767.59;;;5.42;48.49
64841;BME280;51307;52.162;7.560;2023-04-02T10:07:44;101769.41;;;5.41;48.07
64841;BME280;51307;52.162;7.560;2023-04-02T10:10:35;101778.19;;;5.42;47.25
64841;BME280;51307;52.162;7.560;2023-04-02T10:13:08;101778.41;;;5.38;47.16
64841;BME280;51307;52.162;7.560;2023-04-02T10:20:46;101795.50;;;5.47;47.85
64841;BME280;51307;52.162;7.560;2023-04-02T10:23:18;101794.13;;;5.42;47.79
64841;BME280;51307;52.162;7.560;2023-04-02T10:26:04;101803.91;;;5.54;48.67
64841;BME280;51307;52.162;7.560;2023-04-02T10:32:02;101810.53;;;5.61;47.42
64841;BME280;51307;52.162;7.560;2023-04-02T10:40:23;101816.47;;;5.65;47.90
64841;BME280;51307;52.162;7.560;2023-04-02T10:53:47;101821.41;;;5.84;48.50
64841;BME280;51307;52.162;7.560;2023-04-02T10:56:17;101832.25;;;6.06;48.60
64841;BME280;51307;52.162;7.560;2023-04-02T10:59:20;101827.91;;;6.18;48.71
64841;BME280;51307;52.162;7.560;2023-04-02T11:01:50;101835.56;;;6.23;47.99
64841;BME280;51307;52.162;7.560;2023-04-02T11:04:31;101832.28;;;6.32;47.98
64841;BME280;51307;52.162;7.560;2023-04-02T11:07:16;101835.25;;;6.40;47.61
64841;BME280;51307;52.162;7.560;2023-04-02T11:09:48;101830.47;;;6.33;47.77
64841;BME280;51307;52.162;7.560;2023-04-02T11:12:38;101834.16;;;6.56;47.15
64841;BME280;51307;52.162;7.560;2023-04-02T11:15:14;101830.53;;;6.70;47.82
64841;BME280;51307;52.162;7.560;2023-04-02T11:17:42;101826.69;;;6.74;48.22
64841;BME280;51307;52.162;7.560;2023-04-02T11:23:14;101836.75;;;6.95;46.82
64841;BME280;51307;52.162;7.560;2023-04-02T11:25:42;101846.22;;;6.99;48.43
64841;BME280;51307;52.162;7.560;2023-04-02T11:28:28;101849.16;;;7.20;48.23
64841;BME280;51307;52.162;7.560;2023-04-02T11:30:56;101860.47;;;7.11;46.31
64841;BME280;51307;52.162;7.560;2023-04-02T11:33:42;101864.97;;;6.97;46.39
64841;BME280;51307;52.162;7.560;2023-04-02T11:39:11;101886.47;;;6.94;46.95
64841;BME280;51307;52.162;7.560;2023-04-02T11:44:26;101879.63;;;6.90;45.15
64841;BME280;51307;52.162;7.560;2023-04-02T11:46:51;101884.34;;;6.86;45.26
64841;BME280;51307;52.162;7.560;2023-04-02T11:49:37;101885.22;;;6.74;45.65
64841;BME280;51307;52.162;7.560;2023-04-02T11:52:17;101883.72;;;6.70;45.77
64841;BME280;51307;52.162;7.560;2023-04-02T11:54:44;101890.84;;;6.69;46.73
64841;BME280;51307;52.162;7.560;2023-04-02T11:57:26;101897.28;;;6.91;47.69
64841;BME280;51307;52.162;7.560;2023-04-02T12:00:34;101899.97;;;6.91;46.30
64841;BME280;51307;52.162;7.560;2023-04-02T12:11:06;101913.22;;;7.30;46.01
64841;BME280;51307;52.162;7.560;2023-04-02T12:16:06;101919.50;;;7.53;46.80
64841;BME280;51307;52.162;7.560;2023-04-02T12:18:34;101924.31;;;7.48;45.38
64841;BME280;51307;52.162;7.560;2023-04-02T12:21:00;101930.69;;;7.58;46.08
64841;BME280;51307;52.162;7.560;2023-04-02T12:23:32;101926.28;;;7.70;45.18
64841;BME280;51307;52.162;7.560;2023-04-02T12:26:07;101927.97;;;7.71;45.04
64841;BME280;51307;52.162;7.560;2023-04-02T12:28:46;101922.81;;;7.81;45.11
64841;BME280;51307;52.162;7.560;2023-04-02T12:31:14;101925.88;;;7.87;45.77
64841;BME280;51307;52.162;7.560;2023-04-02T12:33:43;101921.53;;;7.98;45.81
64841;BME280;51307;52.162;7.560;2023-04-02T12:38:52;101924.38;;;8.07;44.02
64841;BME280;51307;52.162;7.560;2023-04-02T12:43:57;101932.88;;;8.24;44.59
64841;BME280;51307;52.162;7.560;2023-04-02T12:46:23;101944.50;;;8.23;44.12
64841;BME280;51307;52.162;7.560;2023-04-02T12:49:02;101949.22;;;7.84;43.39
64841;BME280;51307;52.162;7.560;2023-04-02T12:51:29;101944.63;;;7.62;43.36
64841;BME280;51307;52.162;7.560;2023-04-02T12:53:55;101948.13;;;7.62;43.50
64841;BME280;51307;52.162;7.560;2023-04-02T12:56:23;101942.19;;;7.83;43.77
64841;BME280;51307;52.162;7.560;2023-04-02T12:58:56;101953.59;;;7.85;43.79
64841;BME280;51307;52.162;7.560;2023-04-02T13:01:27;101946.78;;;7.81;43.81
64841;BME280;51307;52.162;7.560;2023-04-02T13:04:08;101951.88;;;7.84;43.24
64841;BME280;51307;52.162;7.560;2023-04-02T13:06:38;101955.34;;;7.73;43.80
64841;BME280;51307;52.162;7.560;2023-04-02T13:09:23;101953.34;;;7.88;44.23
64841;BME280;51307;52.162;7.560;2023-04-02T13:11:50;101953.06;;;7.80;42.69
64841;BME280;51307;52.162;7.560;2023-04-02T13:14:17;101944.91;;;7.94;42.82
64841;BME280;51307;52.162;7.560;2023-04-02T13:16:44;101946.38;;;7.98;43.94
64841;BME280;51307;52.162;7.560;2023-04-02T13:21:52;101946.13;;;8.01;43.00
64841;BME280;51307;52.162;7.560;2023-04-02T13:24:23;101939.50;;;8.07;43.87
64841;BME280;51307;52.162;7.560;2023-04-02T13:26:52;101947.53;;;8.18;44.47
64841;BME280;51307;52.162;7.560;2023-04-02T13:29:33;101949.00;;;8.22;43.47
64841;BME280;51307;52.162;7.560;2023-04-02T13:32:01;101944.06;;;8.29;42.39
64841;BME280;51307;52.162;7.560;2023-04-02T13:34:27;101959.13;;;8.41;42.89
64841;BME280;51307;52.162;7.560;2023-04-02T13:36:53;101953.31;;;8.48;42.19
64841;BME280;51307;52.162;7.560;2023-04-02T13:39:19;101966.16;;;8.54;41.31
64841;BME280;51307;52.162;7.560;2023-04-02T13:41:54;101960.38;;;8.60;42.11
64841;BME280;51307;52.162;7.560;2023-04-02T13:46:46;101961.13;;;8.73;42.43
64841;BME280;51307;52.162;7.560;2023-04-02T13:49:12;101962.56;;;8.78;41.65
64841;BME280;51307;52.162;7.560;2023-04-02T13:51:41;101964.75;;;8.84;41.91
64841;BME280;51307;52.162;7.560;2023-04-02T13:56:46;101960.44;;;9.05;42.66
64841;BME280;51307;52.162;7.560;2023-04-02T13:59:12;101963.81;;;9.07;41.40
64841;BME280;51307;52.162;7.560;2023-04-02T14:01:40;101965.28;;;9.12;41.42
64841;BME280;51307;52.162;7.560;2023-04-02T14:04:06;101965.03;;;9.26;41.84
64841;BME280;51307;52.162;7.560;2023-04-02T14:09:55;101962.84;;;9.20;41.93
64841;BME280;51307;52.162;7.560;2023-04-02T14:18:02;101971.59;;;9.22;41.18
64841;BME280;51307;52.162;7.560;2023-04-02T14:26:12;101976.41;;;9.51;41.87
64841;BME280;51307;52.162;7.560;2023-04-02T14:28:59;101969.59;;;9.47;41.95
64841;BME280;51307;52.162;7.560;2023-04-02T14:31:40;101973.72;;;9.51;41.01
64841;BME280;51307;52.162;7.560;2023-04-02T14:34:59;101972.97;;;9.60;40.37
64841;BME280;51307;52.162;7.560;2023-04-02T14:42:46;101977.56;;;9.69;39.72
64841;BME280;51307;52.162;7.560;2023-04-02T14:48:02;101985.56;;;9.81;40.38
64841;BME280;51307;52.162;7.560;2023-04-02T14:50:37;101995.75;;;9.87;40.24
64841;BME280;51307;52.162;7.560;2023-04-02T14:53:13;101985.44;;;9.82;39.80
64841;BME280;51307;52.162;7.560;2023-04-02T14:55:43;101992.34;;;9.85;38.16
64841;BME280;51307;52.162;7.560;2023-04-02T14:58:20;101998.00;;;10.03;39.65
64841;BME280;51307;52.162;7.560;2023-04-02T15:01:05;102003.91;;;10.18;39.41
64841;BME280;51307;52.162;7.560;2023-04-02T15:03:53;102004.38;;;10.23;38.89
64841;BME280;51307;52.162;7.560;2023-04-02T15:06:29;101996.84;;;10.17;37.31
64841;BME280;51307;52.162;7.560;2023-04-02T15:09:13;101997.00;;;10.36;37.82
64841;BME280;51307;52.162;7.560;2023-04-02T15:11:49;102000.16;;;10.41;38.73
64841;BME280;51307;52.162;7.560;2023-04-02T15:14:22;101999.91;;;10.45;38.62
64841;BME280;51307;52.162;7.560;2023-04-02T15:16:51;102002.53;;;10.56;38.20
64841;BME280;51307;52.162;7.560;2023-04-02T15:19:17;102003.72;;;10.63;37.94
64841;BME280;51307;52.162;7.560;2023-04-02T15:32:37;102002.78;;;10.53;38.05
64841;BME280;51307;52.162;7.560;2023-04-02T15:37:58;102005.19;;;10.56;38.56
64841;BME280;51307;52.162;7.560;2023-04-02T15:45:25;102019.81;;;10.73;38.08
64841;BME280;51307;52.162;7.560;2023-04-02T15:50:45;102030.28;;;11.07;37.14
64841;BME280;51307;52.162;7.560;2023-04-02T15:53:16;102032.38;;;11.34;35.43
64841;BME280;51307;52.162;7.560;2023-04-02T15:56:09;102028.72;;;11.04;34.78
64841;BME280;51307;52.162;7.560;2023-04-02T15:59:06;102046.13;;;11.91;34.89
64841;BME280;51307;52.162;7.560;2023-04-02T16:07:07;102038.66;;;14.40;31.52
64841;BME280;51307;52.162;7.560;2023-04-02T16:12:40;102036.81;;;16.13;27.97
64841;BME280;51307;52.162;7.560;2023-04-02T16:15:21;102041.78;;;17.24;27.13
64841;BME280;51307;52.162;7.560;2023-04-02T16:18:19;102046.16;;;17.81;25.63
64841;BME280;51307;52.162;7.560;2023-04-02T16:20:52;102050.31;;;18.15;24.96
64841;BME280;51307;52.162;7.560;2023-04-02T16:23:36;102039.53;;;18.76;24.52
64841;BME280;51307;52.162;7.560;2023-04-02T16:34:54;102054.28;;;20.37;22.34
64841;BME280;51307;52.162;7.560;2023-04-02T16:40:51;102065.69;;;20.54;22.08
64841;BME280;51307;52.162;7.560;2023-04-02T16:46:38;102062.44;;;20.87;21.46
64841;BME280;51307;52.162;7.560;2023-04-02T16:57:48;102076.19;;;21.42;20.85
64841;BME280;51307;52.162;7.560;2023-04-02T17:06:22;102100.00;;;20.55;21.34
64841;BME280;51307;52.162;7.560;2023-04-02T17:08:56;102095.94;;;20.22;21.99
64841;BME280;51307;52.162;7.560;2023-04-02T17:11:36;102092.31;;;19.78;22.23
64841;BME280;51307;52.162;7.560;2023-04-02T17:14:18;102105.28;;;19.08;23.12
64841;BME280;51307;52.162;7.560;2023-04-02T17:16:50;102109.34;;;18.28;24.24
64841;BME280;51307;52.162;7.560;2023-04-02T17:19:18;102110.03;;;17.51;25.32
64841;BME280;51307;52.162;7.560;2023-04-02T17:21:48;102108.28;;;16.93;25.48
64841;BME280;51307;52.162;7.560;2023-04-02T17:24:41;102119.13;;;16.01;27.04
64841;BME280;51307;52.162;7.560;2023-04-02T17:27:32;102125.34;;;14.98;28.14
64841;BME280;51307;52.162;7.560;2023-04-02T17:32:43;102134.03;;;14.20;29.81
64841;BME280;51307;52.162;7.560;2023-04-02T17:38:04;102139.44;;;13.54;30.84
64841;BME280;51307;52.162;7.560;2023-04-02T18:08:05;102172.78;;;11.74;34.16
64841;BME280;51307;52.162;7.560;2023-04-02T18:13:34;102173.22;;;11.69;34.47
64841;BME280;51307;52.162;7.560;2023-04-02T18:16:05;102186.41;;;11.61;34.22
64841;BME280;51307;52.162;7.560;2023-04-02T18:21:50;102183.28;;;11.56;33.92
64841;BME280;51307;52.162;7.560;2023-04-02T18:46:50;102223.63;;;10.80;35.13
64841;BME280;51307;52.162;7.560;2023-04-02T18:49:44;102225.41;;;10.90;35.32